sensor_id;sensor_type;location;lat;lon;timestamp;P1;durP1;ratioP1;P2;durP2;ratioP2
46198;SDS011;31928;52.104;10.030;2023-07-22T00:00:38;2.88;;;2.67;;
46198;SDS011;31928;52.104;10.030;2023-07-22T00:03:05;3.75;;;3.45;;
46198;SDS011;31928;52.104;10.030;2023-07-22T00:05:32;2.95;;;2.65;;
46198;SDS011;31928;52.104;10.030;2023-07-22T00:07:59;3.00;;;2.53;;
46198;SDS011;31928;52.104;10.030;2023-07-22T00:10:25;2.67;;;2.47;;
46198;SDS011;31928;52.104;10.030;2023-07-22T00:12:52;3.20;;;2.92;;
46198;SDS011;31928;52.104;10.030;2023-07-22T00:15:19;3.53;;;3.22;;
46198;SDS011;31928;52.104;10.030;2023-07-22T00:17:46;3.50;;;3.20;;
46198;SDS011;31928;52.104;10.030;2023-07-22T00:20:13;3.40;;;3.13;;
46198;SDS011;31928;52.104;10.030;2023-07-22T00:22:40;3.65;;;3.20;;
46198;SDS011;31928;52.104;10.030;2023-07-22T00:25:09;3.28;;;3.08;;
46198;SDS011;31928;52.104;10.030;2023-07-22T00:27:37;3.08;;;2.75;;
46198;SDS011;31928;52.104;10.030;2023-07-22T00:30:08;3.78;;;3.38;;
46198;SDS011;31928;52.104;10.030;2023-07-22T00:32:35;3.30;;;2.75;;
46198;SDS011;31928;52.104;10.030;2023-07-22T00:35:06;3.00;;;2.80;;
46198;SDS011;31928;52.104;10.030;2023-07-22T00:37:33;3.53;;;3.22;;
46198;SDS011;31928;52.104;10.030;2023-07-22T00:40:00;3.90;;;3.47;;
46198;SDS011;31928;52.104;10.030;2023-07-22T00:42:28;3.60;;;3.28;;
46198;SDS011;31928;52.104;10.030;2023-07-22T00:44:54;3.08;;;2.88;;
46198;SDS011;31928;52.104;10.030;2023-07-22T00:47:21;3.65;;;3.35;;
46198;SDS011;31928;52.104;10.030;2023-07-22T00:49:49;3.00;;;2.80;;
46198;SDS011;31928;52.104;10.030;2023-07-22T00:52:16;3.40;;;3.10;;
46198;SDS011;31928;52.104;10.030;2023-07-22T00:54:43;4.10;;;3.72;;
46198;SDS011;31928;52.104;10.030;2023-07-22T00:57:10;3.35;;;3.10;;
46198;SDS011;31928;52.104;10.030;2023-07-22T00:59:39;5.63;;;4.20;;
46198;SDS011;31928;52.104;10.030;2023-07-22T01:02:06;3.60;;;3.30;;
46198;SDS011;31928;52.104;10.030;2023-07-22T01:04:33;3.30;;;3.00;;
46198;SDS011;31928;52.104;10.030;2023-07-22T01:07:02;2.97;;;2.78;;
46198;SDS011;31928;52.104;10.030;2023-07-22T01:09:34;2.95;;;2.70;;
46198;SDS011;31928;52.104;10.030;2023-07-22T01:12:01;4.20;;;3.80;;
46198;SDS011;31928;52.104;10.030;2023-07-22T01:14:28;4.00;;;3.45;;
46198;SDS011;31928;52.104;10.030;2023-07-22T01:16:55;4.03;;;3.63;;
46198;SDS011;31928;52.104;10.030;2023-07-22T01:19:22;3.60;;;3.30;;
46198;SDS011;31928;52.104;10.030;2023-07-22T01:21:49;4.40;;;4.00;;
46198;SDS011;31928;52.104;10.030;2023-07-22T01:24:16;3.60;;;3.30;;
46198;SDS011;31928;52.104;10.030;2023-07-22T01:26:43;5.35;;;3.90;;
46198;SDS011;31928;52.104;10.030;2023-07-22T01:29:10;3.97;;;3.47;;
46198;SDS011;31928;52.104;10.030;2023-07-22T01:31:37;4.63;;;4.05;;
46198;SDS011;31928;52.104;10.030;2023-07-22T01:34:04;4.22;;;3.92;;
46198;SDS011;31928;52.104;10.030;2023-07-22T01:36:31;3.70;;;3.40;;
46198;SDS011;31928;52.104;10.030;2023-07-22T01:38:58;3.53;;;3.22;;
46198;SDS011;31928;52.104;10.030;2023-07-22T01:41:27;4.20;;;3.88;;
46198;SDS011;31928;52.104;10.030;2023-07-22T01:43:53;3.90;;;3.60;;
46198;SDS011;31928;52.104;10.030;2023-07-22T01:46:20;4.40;;;4.05;;
46198;SDS011;31928;52.104;10.030;2023-07-22T01:48:48;3.70;;;3.40;;
46198;SDS011;31928;52.104;10.030;2023-07-22T01:51:15;6.53;;;4.20;;
46198;SDS011;31928;52.104;10.030;2023-07-22T01:53:41;4.53;;;4.13;;
46198;SDS011;31928;52.104;10.030;2023-07-22T01:56:08;4.38;;;3.95;;
46198;SDS011;31928;52.104;10.030;2023-07-22T01:58:35;4.20;;;3.85;;
46198;SDS011;31928;52.104;10.030;2023-07-22T02:01:01;4.60;;;4.20;;
46198;SDS011;31928;52.104;10.030;2023-07-22T02:03:28;3.78;;;3.47;;
46198;SDS011;31928;52.104;10.030;2023-07-22T02:06:02;3.90;;;3.60;;
46198;SDS011;31928;52.104;10.030;2023-07-22T02:08:29;3.50;;;3.20;;
46198;SDS011;31928;52.104;10.030;2023-07-22T02:11:03;3.58;;;3.28;;
46198;SDS011;31928;52.104;10.030;2023-07-22T02:13:31;4.15;;;3.33;;
46198;SDS011;31928;52.104;10.030;2023-07-22T02:15:59;5.03;;;3.63;;
46198;SDS011;31928;52.104;10.030;2023-07-22T02:18:26;4.65;;;4.03;;
46198;SDS011;31928;52.104;10.030;2023-07-22T02:20:54;3.80;;;3.50;;
46198;SDS011;31928;52.104;10.030;2023-07-22T02:23:21;4.60;;;4.20;;
46198;SDS011;31928;52.104;10.030;2023-07-22T02:25:49;3.45;;;3.15;;
46198;SDS011;31928;52.104;10.030;2023-07-22T02:28:20;4.05;;;3.75;;
46198;SDS011;31928;52.104;10.030;2023-07-22T02:30:48;3.92;;;3.42;;
46198;SDS011;31928;52.104;10.030;2023-07-22T02:33:16;4.75;;;3.45;;
46198;SDS011;31928;52.104;10.030;2023-07-22T02:35:43;3.95;;;3.65;;
46198;SDS011;31928;52.104;10.030;2023-07-22T02:38:09;4.18;;;3.60;;
46198;SDS011;31928;52.104;10.030;2023-07-22T02:40:37;3.50;;;3.20;;
46198;SDS011;31928;52.104;10.030;2023-07-22T02:43:04;3.75;;;3.45;;
46198;SDS011;31928;52.104;10.030;2023-07-22T02:45:32;3.72;;;3.42;;
46198;SDS011;31928;52.104;10.030;2023-07-22T02:48:00;4.78;;;4.28;;
46198;SDS011;31928;52.104;10.030;2023-07-22T02:50:26;6.10;;;3.88;;
46198;SDS011;31928;52.104;10.030;2023-07-22T02:52:53;4.05;;;3.50;;
46198;SDS011;31928;52.104;10.030;2023-07-22T02:55:20;4.93;;;4.20;;
46198;SDS011;31928;52.104;10.030;2023-07-22T02:57:47;4.65;;;3.80;;
46198;SDS011;31928;52.104;10.030;2023-07-22T03:00:15;4.50;;;3.97;;
46198;SDS011;31928;52.104;10.030;2023-07-22T03:02:52;3.97;;;3.50;;
46198;SDS011;31928;52.104;10.030;2023-07-22T03:05:20;5.05;;;3.97;;
46198;SDS011;31928;52.104;10.030;2023-07-22T03:07:47;4.65;;;4.25;;
46198;SDS011;31928;52.104;10.030;2023-07-22T03:10:14;3.95;;;3.50;;
46198;SDS011;31928;52.104;10.030;2023-07-22T03:12:41;5.10;;;4.18;;
46198;SDS011;31928;52.104;10.030;2023-07-22T03:15:07;4.35;;;3.95;;
46198;SDS011;31928;52.104;10.030;2023-07-22T03:17:36;4.47;;;4.07;;
46198;SDS011;31928;52.104;10.030;2023-07-22T03:20:03;4.25;;;3.70;;
46198;SDS011;31928;52.104;10.030;2023-07-22T03:22:35;5.50;;;4.60;;
46198;SDS011;31928;52.104;10.030;2023-07-22T03:25:02;4.60;;;4.07;;
46198;SDS011;31928;52.104;10.030;2023-07-22T03:27:28;6.15;;;4.43;;
46198;SDS011;31928;52.104;10.030;2023-07-22T03:29:55;5.20;;;4.70;;
46198;SDS011;31928;52.104;10.030;2023-07-22T03:32:22;4.13;;;3.67;;
46198;SDS011;31928;52.104;10.030;2023-07-22T03:34:48;4.03;;;3.72;;
46198;SDS011;31928;52.104;10.030;2023-07-22T03:37:15;4.82;;;4.43;;
46198;SDS011;31928;52.104;10.030;2023-07-22T03:39:42;4.30;;;3.90;;
46198;SDS011;31928;52.104;10.030;2023-07-22T03:42:08;4.63;;;4.22;;
46198;SDS011;31928;52.104;10.030;2023-07-22T03:47:02;4.15;;;3.70;;
46198;SDS011;31928;52.104;10.030;2023-07-22T03:49:29;4.68;;;4.03;;
46198;SDS011;31928;52.104;10.030;2023-07-22T03:51:56;5.22;;;4.68;;
46198;SDS011;31928;52.104;10.030;2023-07-22T03:54:22;4.85;;;4.32;;
46198;SDS011;31928;52.104;10.030;2023-07-22T03:56:49;3.65;;;3.35;;
46198;SDS011;31928;52.104;10.030;2023-07-22T03:59:16;6.75;;;4.70;;
46198;SDS011;31928;52.104;10.030;2023-07-22T04:04:09;4.88;;;4.07;;
46198;SDS011;31928;52.104;10.030;2023-07-22T04:06:36;4.43;;;4.03;;
46198;SDS011;31928;52.104;10.030;2023-07-22T04:09:03;4.68;;;4.28;;
46198;SDS011;31928;52.104;10.030;2023-07-22T04:11:29;5.57;;;4.15;;
46198;SDS011;31928;52.104;10.030;2023-07-22T04:13:56;4.03;;;3.72;;
46198;SDS011;31928;52.104;10.030;2023-07-22T04:16:23;4.75;;;4.25;;
46198;SDS011;31928;52.104;10.030;2023-07-22T04:18:49;4.70;;;3.63;;
46198;SDS011;31928;52.104;10.030;2023-07-22T04:21:16;4.60;;;3.80;;
46198;SDS011;31928;52.104;10.030;2023-07-22T04:23:43;5.68;;;4.18;;
46198;SDS011;31928;52.104;10.030;2023-07-22T04:28:36;4.25;;;3.88;;
46198;SDS011;31928;52.104;10.030;2023-07-22T04:31:02;4.88;;;4.45;;
46198;SDS011;31928;52.104;10.030;2023-07-22T04:33:30;5.22;;;4.72;;
46198;SDS011;31928;52.104;10.030;2023-07-22T04:38:25;4.75;;;4.32;;
46198;SDS011;31928;52.104;10.030;2023-07-22T04:40:51;4.45;;;4.10;;
46198;SDS011;31928;52.104;10.030;2023-07-22T04:43:18;5.82;;;4.10;;
46198;SDS011;31928;52.104;10.030;2023-07-22T04:45:48;4.30;;;3.88;;
46198;SDS011;31928;52.104;10.030;2023-07-22T04:48:19;4.95;;;4.30;;
46198;SDS011;31928;52.104;10.030;2023-07-22T04:50:46;4.57;;;4.18;;
46198;SDS011;31928;52.104;10.030;2023-07-22T04:53:13;5.38;;;4.20;;
46198;SDS011;31928;52.104;10.030;2023-07-22T04:55:40;4.13;;;3.80;;
46198;SDS011;31928;52.104;10.030;2023-07-22T04:58:08;4.47;;;4.00;;
46198;SDS011;31928;52.104;10.030;2023-07-22T05:00:36;4.72;;;4.15;;
46198;SDS011;31928;52.104;10.030;2023-07-22T05:03:04;3.78;;;3.47;;
46198;SDS011;31928;52.104;10.030;2023-07-22T05:05:31;4.40;;;3.92;;
46198;SDS011;31928;52.104;10.030;2023-07-22T05:07:58;4.50;;;4.10;;
46198;SDS011;31928;52.104;10.030;2023-07-22T05:10:25;3.83;;;3.53;;
46198;SDS011;31928;52.104;10.030;2023-07-22T05:12:52;5.20;;;4.75;;
46198;SDS011;31928;52.104;10.030;2023-07-22T05:15:18;5.72;;;5.03;;
46198;SDS011;31928;52.104;10.030;2023-07-22T05:17:45;3.78;;;3.47;;
46198;SDS011;31928;52.104;10.030;2023-07-22T05:20:13;5.13;;;4.63;;
46198;SDS011;31928;52.104;10.030;2023-07-22T05:22:39;4.70;;;4.15;;
46198;SDS011;31928;52.104;10.030;2023-07-22T05:25:07;4.28;;;3.88;;
46198;SDS011;31928;52.104;10.030;2023-07-22T05:27:34;5.10;;;4.25;;
46198;SDS011;31928;52.104;10.030;2023-07-22T05:30:00;5.43;;;4.38;;
46198;SDS011;31928;52.104;10.030;2023-07-22T05:32:28;4.07;;;3.78;;
46198;SDS011;31928;52.104;10.030;2023-07-22T05:34:59;4.10;;;3.70;;
46198;SDS011;31928;52.104;10.030;2023-07-22T05:37:31;5.07;;;4.57;;
46198;SDS011;31928;52.104;10.030;2023-07-22T05:39:58;5.63;;;4.63;;
46198;SDS011;31928;52.104;10.030;2023-07-22T05:42:25;5.43;;;4.75;;
46198;SDS011;31928;52.104;10.030;2023-07-22T05:44:53;4.45;;;3.83;;
46198;SDS011;31928;52.104;10.030;2023-07-22T05:47:20;5.32;;;4.50;;
46198;SDS011;31928;52.104;10.030;2023-07-22T05:49:47;4.78;;;4.38;;
46198;SDS011;31928;52.104;10.030;2023-07-22T05:52:13;4.80;;;4.40;;
46198;SDS011;31928;52.104;10.030;2023-07-22T05:54:40;5.13;;;4.63;;
46198;SDS011;31928;52.104;10.030;2023-07-22T05:57:07;5.32;;;4.82;;
46198;SDS011;31928;52.104;10.030;2023-07-22T05:59:34;5.47;;;4.97;;
46198;SDS011;31928;52.104;10.030;2023-07-22T06:02:05;7.82;;;5.32;;
46198;SDS011;31928;52.104;10.030;2023-07-22T06:04:35;5.45;;;4.95;;
46198;SDS011;31928;52.104;10.030;2023-07-22T06:07:02;5.43;;;4.93;;
46198;SDS011;31928;52.104;10.030;2023-07-22T06:09:29;6.00;;;4.47;;
46198;SDS011;31928;52.104;10.030;2023-07-22T06:11:56;5.10;;;4.60;;
46198;SDS011;31928;52.104;10.030;2023-07-22T06:14:22;4.68;;;4.07;;
46198;SDS011;31928;52.104;10.030;2023-07-22T06:16:49;6.00;;;5.43;;
46198;SDS011;31928;52.104;10.030;2023-07-22T06:19:16;5.43;;;4.93;;
46198;SDS011;31928;52.104;10.030;2023-07-22T06:21:43;5.22;;;4.70;;
46198;SDS011;31928;52.104;10.030;2023-07-22T06:24:09;6.00;;;4.53;;
46198;SDS011;31928;52.104;10.030;2023-07-22T06:26:36;5.93;;;4.80;;
46198;SDS011;31928;52.104;10.030;2023-07-22T06:29:03;5.32;;;4.80;;
46198;SDS011;31928;52.104;10.030;2023-07-22T06:31:29;5.05;;;4.55;;
46198;SDS011;31928;52.104;10.030;2023-07-22T06:33:57;5.32;;;4.82;;
46198;SDS011;31928;52.104;10.030;2023-07-22T06:36:26;6.78;;;5.35;;
46198;SDS011;31928;52.104;10.030;2023-07-22T06:38:53;7.05;;;5.80;;
46198;SDS011;31928;52.104;10.030;2023-07-22T06:41:21;6.63;;;5.78;;
46198;SDS011;31928;52.104;10.030;2023-07-22T06:43:50;4.72;;;4.32;;
46198;SDS011;31928;52.104;10.030;2023-07-22T06:46:17;8.18;;;6.03;;
46198;SDS011;31928;52.104;10.030;2023-07-22T06:48:44;6.40;;;5.18;;
46198;SDS011;31928;52.104;10.030;2023-07-22T06:51:11;6.97;;;6.38;;
46198;SDS011;31928;52.104;10.030;2023-07-22T06:53:37;5.63;;;5.10;;
46198;SDS011;31928;52.104;10.030;2023-07-22T06:56:04;5.55;;;5.05;;
46198;SDS011;31928;52.104;10.030;2023-07-22T06:58:31;5.63;;;5.10;;
46198;SDS011;31928;52.104;10.030;2023-07-22T07:00:57;5.95;;;5.40;;
46198;SDS011;31928;52.104;10.030;2023-07-22T07:03:24;5.57;;;5.07;;
46198;SDS011;31928;52.104;10.030;2023-07-22T07:05:51;6.55;;;5.22;;
46198;SDS011;31928;52.104;10.030;2023-07-22T07:08:19;6.68;;;6.00;;
46198;SDS011;31928;52.104;10.030;2023-07-22T07:10:46;5.47;;;4.97;;
46198;SDS011;31928;52.104;10.030;2023-07-22T07:13:12;5.13;;;4.63;;
46198;SDS011;31928;52.104;10.030;2023-07-22T07:15:39;8.10;;;5.10;;
46198;SDS011;31928;52.104;10.030;2023-07-22T07:18:07;5.45;;;4.95;;
46198;SDS011;31928;52.104;10.030;2023-07-22T07:20:33;5.47;;;4.47;;
46198;SDS011;31928;52.104;10.030;2023-07-22T07:23:00;6.25;;;5.65;;
46198;SDS011;31928;52.104;10.030;2023-07-22T07:25:27;5.65;;;5.13;;
46198;SDS011;31928;52.104;10.030;2023-07-22T07:27:53;5.88;;;5.28;;
46198;SDS011;31928;52.104;10.030;2023-07-22T07:30:20;7.40;;;6.30;;
46198;SDS011;31928;52.104;10.030;2023-07-22T07:32:46;6.70;;;5.30;;
46198;SDS011;31928;52.104;10.030;2023-07-22T07:35:13;6.40;;;5.65;;
46198;SDS011;31928;52.104;10.030;2023-07-22T07:37:40;5.30;;;4.80;;
46198;SDS011;31928;52.104;10.030;2023-07-22T07:40:07;5.13;;;4.65;;
46198;SDS011;31928;52.104;10.030;2023-07-22T07:42:34;6.10;;;5.05;;
46198;SDS011;31928;52.104;10.030;2023-07-22T07:45:01;5.65;;;4.95;;
46198;SDS011;31928;52.104;10.030;2023-07-22T07:47:27;7.10;;;5.15;;
46198;SDS011;31928;52.104;10.030;2023-07-22T07:49:54;5.35;;;4.85;;
46198;SDS011;31928;52.104;10.030;2023-07-22T07:52:21;5.70;;;5.20;;
46198;SDS011;31928;52.104;10.030;2023-07-22T07:54:48;5.40;;;4.90;;
46198;SDS011;31928;52.104;10.030;2023-07-22T07:57:14;6.05;;;5.45;;
46198;SDS011;31928;52.104;10.030;2023-07-22T07:59:41;6.38;;;5.57;;
46198;SDS011;31928;52.104;10.030;2023-07-22T08:02:08;7.35;;;6.40;;
46198;SDS011;31928;52.104;10.030;2023-07-22T08:04:36;7.68;;;6.18;;
46198;SDS011;31928;52.104;10.030;2023-07-22T08:07:05;6.60;;;6.00;;
46198;SDS011;31928;52.104;10.030;2023-07-22T08:09:32;7.13;;;6.43;;
46198;SDS011;31928;52.104;10.030;2023-07-22T08:11:59;7.22;;;6.28;;
46198;SDS011;31928;52.104;10.030;2023-07-22T08:14:27;6.63;;;6.03;;
46198;SDS011;31928;52.104;10.030;2023-07-22T08:16:54;8.00;;;7.20;;
46198;SDS011;31928;52.104;10.030;2023-07-22T08:19:20;6.32;;;5.72;;
46198;SDS011;31928;52.104;10.030;2023-07-22T08:21:47;6.35;;;5.75;;
46198;SDS011;31928;52.104;10.030;2023-07-22T08:24:14;7.10;;;6.15;;
46198;SDS011;31928;52.104;10.030;2023-07-22T08:26:40;7.50;;;6.80;;
46198;SDS011;31928;52.104;10.030;2023-07-22T08:29:07;7.13;;;6.43;;
46198;SDS011;31928;52.104;10.030;2023-07-22T08:31:34;7.35;;;6.65;;
46198;SDS011;31928;52.104;10.030;2023-07-22T08:34:01;5.65;;;5.15;;
46198;SDS011;31928;52.104;10.030;2023-07-22T08:36:27;6.07;;;5.47;;
46198;SDS011;31928;52.104;10.030;2023-07-22T08:38:54;6.72;;;6.13;;
46198;SDS011;31928;52.104;10.030;2023-07-22T08:41:21;6.03;;;5.43;;
46198;SDS011;31928;52.104;10.030;2023-07-22T08:43:49;6.88;;;6.28;;
46198;SDS011;31928;52.104;10.030;2023-07-22T08:46:19;7.47;;;6.28;;
46198;SDS011;31928;52.104;10.030;2023-07-22T08:48:47;6.70;;;5.80;;
46198;SDS011;31928;52.104;10.030;2023-07-22T08:51:20;6.32;;;5.72;;
46198;SDS011;31928;52.104;10.030;2023-07-22T08:53:49;7.25;;;6.53;;
46198;SDS011;31928;52.104;10.030;2023-07-22T08:56:20;7.40;;;6.70;;
46198;SDS011;31928;52.104;10.030;2023-07-22T08:58:47;8.45;;;6.32;;
46198;SDS011;31928;52.104;10.030;2023-07-22T09:01:14;7.65;;;6.95;;
46198;SDS011;31928;52.104;10.030;2023-07-22T09:03:41;8.32;;;7.53;;
46198;SDS011;31928;52.104;10.030;2023-07-22T09:06:08;7.20;;;6.38;;
46198;SDS011;31928;52.104;10.030;2023-07-22T09:08:36;6.68;;;6.05;;
46198;SDS011;31928;52.104;10.030;2023-07-22T09:11:05;6.60;;;5.85;;
46198;SDS011;31928;52.104;10.030;2023-07-22T09:13:32;7.28;;;6.50;;
46198;SDS011;31928;52.104;10.030;2023-07-22T09:16:01;6.75;;;6.15;;
46198;SDS011;31928;52.104;10.030;2023-07-22T09:18:28;6.65;;;5.97;;
46198;SDS011;31928;52.104;10.030;2023-07-22T09:20:55;5.50;;;4.85;;
46198;SDS011;31928;52.104;10.030;2023-07-22T09:23:34;4.88;;;4.30;;
46198;SDS011;31928;52.104;10.030;2023-07-22T09:26:11;5.15;;;4.65;;
46198;SDS011;31928;52.104;10.030;2023-07-22T09:31:15;5.03;;;4.20;;
46198;SDS011;31928;52.104;10.030;2023-07-22T09:33:42;4.15;;;3.75;;
46198;SDS011;31928;52.104;10.030;2023-07-22T09:36:09;5.05;;;4.45;;
46198;SDS011;31928;52.104;10.030;2023-07-22T09:38:37;5.38;;;4.85;;
46198;SDS011;31928;52.104;10.030;2023-07-22T09:41:04;5.95;;;5.00;;
46198;SDS011;31928;52.104;10.030;2023-07-22T09:43:31;5.72;;;4.55;;
46198;SDS011;31928;52.104;10.030;2023-07-22T09:46:10;5.43;;;4.57;;
46198;SDS011;31928;52.104;10.030;2023-07-22T09:48:40;5.55;;;4.95;;
46198;SDS011;31928;52.104;10.030;2023-07-22T09:51:12;4.82;;;4.43;;
46198;SDS011;31928;52.104;10.030;2023-07-22T09:53:44;5.05;;;4.60;;
46198;SDS011;31928;52.104;10.030;2023-07-22T10:08:45;3.50;;;3.28;;
46198;SDS011;31928;52.104;10.030;2023-07-22T10:11:14;5.10;;;3.97;;
46198;SDS011;31928;52.104;10.030;2023-07-22T10:13:41;5.65;;;5.07;;
46198;SDS011;31928;52.104;10.030;2023-07-22T10:16:08;5.80;;;5.30;;
46198;SDS011;31928;52.104;10.030;2023-07-22T10:18:35;6.10;;;4.72;;
46198;SDS011;31928;52.104;10.030;2023-07-22T10:21:03;4.65;;;4.25;;
46198;SDS011;31928;52.104;10.030;2023-07-22T10:23:30;4.45;;;3.85;;
46198;SDS011;31928;52.104;10.030;2023-07-22T10:25:57;4.28;;;3.80;;
46198;SDS011;31928;52.104;10.030;2023-07-22T10:28:25;4.22;;;3.83;;
46198;SDS011;31928;52.104;10.030;2023-07-22T10:30:52;4.45;;;4.05;;
46198;SDS011;31928;52.104;10.030;2023-07-22T10:33:19;4.20;;;3.80;;
46198;SDS011;31928;52.104;10.030;2023-07-22T10:36:01;3.95;;;3.65;;
46198;SDS011;31928;52.104;10.030;2023-07-22T10:38:35;5.38;;;4.72;;
46198;SDS011;31928;52.104;10.030;2023-07-22T10:41:10;5.80;;;4.55;;
46198;SDS011;31928;52.104;10.030;2023-07-22T10:43:54;5.38;;;4.88;;
46198;SDS011;31928;52.104;10.030;2023-07-22T10:46:30;5.32;;;4.82;;
46198;SDS011;31928;52.104;10.030;2023-07-22T10:49:09;4.40;;;4.00;;
46198;SDS011;31928;52.104;10.030;2023-07-22T10:51:40;5.35;;;4.60;;
46198;SDS011;31928;52.104;10.030;2023-07-22T10:54:10;4.45;;;4.05;;
46198;SDS011;31928;52.104;10.030;2023-07-22T10:56:40;4.85;;;4.38;;
46198;SDS011;31928;52.104;10.030;2023-07-22T10:59:10;4.25;;;3.95;;
46198;SDS011;31928;52.104;10.030;2023-07-22T11:01:39;5.38;;;4.68;;
46198;SDS011;31928;52.104;10.030;2023-07-22T11:09:49;5.03;;;4.50;;
46198;SDS011;31928;52.104;10.030;2023-07-22T11:12:13;4.70;;;4.30;;
46198;SDS011;31928;52.104;10.030;2023-07-22T11:14:52;4.85;;;4.35;;
46198;SDS011;31928;52.104;10.030;2023-07-22T11:17:28;5.80;;;5.25;;
46198;SDS011;31928;52.104;10.030;2023-07-22T11:19:57;4.43;;;4.00;;
46198;SDS011;31928;52.104;10.030;2023-07-22T11:22:26;4.88;;;4.47;;
46198;SDS011;31928;52.104;10.030;2023-07-22T11:24:56;4.72;;;4.20;;
46198;SDS011;31928;52.104;10.030;2023-07-22T11:27:24;4.75;;;3.97;;
46198;SDS011;31928;52.104;10.030;2023-07-22T11:29:51;4.05;;;3.75;;
46198;SDS011;31928;52.104;10.030;2023-07-22T11:32:19;5.07;;;4.68;;
46198;SDS011;31928;52.104;10.030;2023-07-22T11:34:51;4.82;;;3.75;;
46198;SDS011;31928;52.104;10.030;2023-07-22T11:37:19;3.85;;;3.50;;
46198;SDS011;31928;52.104;10.030;2023-07-22T11:39:46;3.90;;;3.55;;
46198;SDS011;31928;52.104;10.030;2023-07-22T11:42:13;4.10;;;3.70;;
46198;SDS011;31928;52.104;10.030;2023-07-22T11:44:40;3.85;;;3.55;;
46198;SDS011;31928;52.104;10.030;2023-07-22T11:47:07;4.53;;;4.13;;
46198;SDS011;31928;52.104;10.030;2023-07-22T11:49:38;4.65;;;3.63;;
46198;SDS011;31928;52.104;10.030;2023-07-22T11:52:06;3.58;;;3.28;;
46198;SDS011;31928;52.104;10.030;2023-07-22T11:54:41;4.25;;;3.85;;
46198;SDS011;31928;52.104;10.030;2023-07-22T11:57:20;3.83;;;3.53;;
46198;SDS011;31928;52.104;10.030;2023-07-22T11:59:48;3.85;;;3.45;;
46198;SDS011;31928;52.104;10.030;2023-07-22T12:02:20;3.88;;;3.55;;
46198;SDS011;31928;52.104;10.030;2023-07-22T12:04:55;3.85;;;3.55;;
46198;SDS011;31928;52.104;10.030;2023-07-22T12:07:25;3.70;;;3.40;;
46198;SDS011;31928;52.104;10.030;2023-07-22T12:09:54;3.80;;;3.50;;
46198;SDS011;31928;52.104;10.030;2023-07-22T12:12:39;4.18;;;3.70;;
46198;SDS011;31928;52.104;10.030;2023-07-22T12:15:19;4.07;;;3.78;;
46198;SDS011;31928;52.104;10.030;2023-07-22T12:17:51;3.78;;;3.47;;
46198;SDS011;31928;52.104;10.030;2023-07-22T12:20:30;4.40;;;4.00;;
46198;SDS011;31928;52.104;10.030;2023-07-22T12:22:59;4.03;;;3.67;;
46198;SDS011;31928;52.104;10.030;2023-07-22T12:25:26;3.72;;;3.42;;
46198;SDS011;31928;52.104;10.030;2023-07-22T12:27:52;4.03;;;3.65;;
46198;SDS011;31928;52.104;10.030;2023-07-22T12:30:19;3.92;;;3.60;;
46198;SDS011;31928;52.104;10.030;2023-07-22T12:32:47;4.00;;;3.70;;
46198;SDS011;31928;52.104;10.030;2023-07-22T12:35:15;3.85;;;3.55;;
46198;SDS011;31928;52.104;10.030;2023-07-22T12:37:42;4.75;;;3.72;;
46198;SDS011;31928;52.104;10.030;2023-07-22T12:40:09;4.20;;;3.80;;
46198;SDS011;31928;52.104;10.030;2023-07-22T12:42:39;4.72;;;4.32;;
46198;SDS011;31928;52.104;10.030;2023-07-22T12:45:07;4.13;;;3.80;;
46198;SDS011;31928;52.104;10.030;2023-07-22T12:47:35;3.75;;;3.45;;
46198;SDS011;31928;52.104;10.030;2023-07-22T12:50:04;4.40;;;4.00;;
46198;SDS011;31928;52.104;10.030;2023-07-22T12:52:34;4.20;;;3.83;;
46198;SDS011;31928;52.104;10.030;2023-07-22T12:55:01;5.10;;;3.97;;
46198;SDS011;31928;52.104;10.030;2023-07-22T12:57:27;4.70;;;4.30;;
46198;SDS011;31928;52.104;10.030;2023-07-22T12:59:54;3.80;;;3.50;;
46198;SDS011;31928;52.104;10.030;2023-07-22T13:02:21;3.90;;;3.60;;
46198;SDS011;31928;52.104;10.030;2023-07-22T13:04:49;5.07;;;4.05;;
46198;SDS011;31928;52.104;10.030;2023-07-22T13:07:15;4.38;;;3.90;;
46198;SDS011;31928;52.104;10.030;2023-07-22T13:12:20;5.22;;;4.82;;
46198;SDS011;31928;52.104;10.030;2023-07-22T13:14:47;4.65;;;4.25;;
46198;SDS011;31928;52.104;10.030;2023-07-22T13:17:14;4.47;;;4.05;;
46198;SDS011;31928;52.104;10.030;2023-07-22T13:19:40;4.82;;;4.43;;
46198;SDS011;31928;52.104;10.030;2023-07-22T13:22:07;5.05;;;4.60;;
46198;SDS011;31928;52.104;10.030;2023-07-22T13:24:34;4.57;;;4.18;;
46198;SDS011;31928;52.104;10.030;2023-07-22T13:27:01;4.15;;;3.70;;
46198;SDS011;31928;52.104;10.030;2023-07-22T13:29:28;5.78;;;4.07;;
46198;SDS011;31928;52.104;10.030;2023-07-22T13:31:54;4.68;;;4.30;;
46198;SDS011;31928;52.104;10.030;2023-07-22T13:34:21;5.20;;;4.75;;
46198;SDS011;31928;52.104;10.030;2023-07-22T13:36:48;4.60;;;4.20;;
46198;SDS011;31928;52.104;10.030;2023-07-22T13:39:14;4.97;;;4.50;;
46198;SDS011;31928;52.104;10.030;2023-07-22T13:41:41;5.18;;;4.78;;
46198;SDS011;31928;52.104;10.030;2023-07-22T13:44:08;4.55;;;4.15;;
46198;SDS011;31928;52.104;10.030;2023-07-22T13:46:34;4.60;;;4.20;;
46198;SDS011;31928;52.104;10.030;2023-07-22T13:49:01;4.80;;;4.40;;
46198;SDS011;31928;52.104;10.030;2023-07-22T13:51:28;4.88;;;4.47;;
46198;SDS011;31928;52.104;10.030;2023-07-22T13:53:55;4.60;;;4.20;;
46198;SDS011;31928;52.104;10.030;2023-07-22T13:56:21;8.65;;;5.57;;
46198;SDS011;31928;52.104;10.030;2023-07-22T13:58:48;5.32;;;4.80;;
46198;SDS011;31928;52.104;10.030;2023-07-22T14:01:15;5.63;;;4.93;;
46198;SDS011;31928;52.104;10.030;2023-07-22T14:03:42;5.22;;;4.82;;
46198;SDS011;31928;52.104;10.030;2023-07-22T14:06:08;4.30;;;4.00;;
46198;SDS011;31928;52.104;10.030;2023-07-22T14:08:35;4.95;;;4.43;;
46198;SDS011;31928;52.104;10.030;2023-07-22T14:11:02;4.65;;;4.18;;
46198;SDS011;31928;52.104;10.030;2023-07-22T14:13:28;5.38;;;4.97;;
46198;SDS011;31928;52.104;10.030;2023-07-22T14:15:55;4.05;;;3.75;;
46198;SDS011;31928;52.104;10.030;2023-07-22T14:18:34;4.70;;;4.30;;
46198;SDS011;31928;52.104;10.030;2023-07-22T14:21:00;4.50;;;4.10;;
46198;SDS011;31928;52.104;10.030;2023-07-22T14:23:27;4.88;;;4.47;;
46198;SDS011;31928;52.104;10.030;2023-07-22T14:25:54;4.78;;;4.38;;
46198;SDS011;31928;52.104;10.030;2023-07-22T14:28:20;4.65;;;4.25;;
46198;SDS011;31928;52.104;10.030;2023-07-22T14:30:47;4.50;;;4.10;;
46198;SDS011;31928;52.104;10.030;2023-07-22T14:33:14;4.20;;;3.80;;
46198;SDS011;31928;52.104;10.030;2023-07-22T14:35:41;4.18;;;3.78;;
46198;SDS011;31928;52.104;10.030;2023-07-22T14:38:07;4.50;;;4.20;;
46198;SDS011;31928;52.104;10.030;2023-07-22T14:40:34;6.07;;;4.60;;
46198;SDS011;31928;52.104;10.030;2023-07-22T14:43:01;4.82;;;4.43;;
46198;SDS011;31928;52.104;10.030;2023-07-22T14:45:27;4.30;;;3.95;;
46198;SDS011;31928;52.104;10.030;2023-07-22T14:47:54;4.85;;;4.45;;
46198;SDS011;31928;52.104;10.030;2023-07-22T14:50:21;4.10;;;3.70;;
46198;SDS011;31928;52.104;10.030;2023-07-22T14:52:48;3.78;;;3.47;;
46198;SDS011;31928;52.104;10.030;2023-07-22T14:55:14;4.45;;;4.05;;
46198;SDS011;31928;52.104;10.030;2023-07-22T14:57:41;4.38;;;4.05;;
46198;SDS011;31928;52.104;10.030;2023-07-22T15:00:08;4.07;;;3.78;;
46198;SDS011;31928;52.104;10.030;2023-07-22T15:02:36;3.92;;;3.63;;
46198;SDS011;31928;52.104;10.030;2023-07-22T15:05:03;4.45;;;4.15;;
46198;SDS011;31928;52.104;10.030;2023-07-22T15:07:30;4.18;;;3.58;;
46198;SDS011;31928;52.104;10.030;2023-07-22T15:09:57;4.05;;;3.65;;